Time;durP1;ratioP1;P1;durP2;ratioP2;P2;SDS_P1;SDS_P2;PMS_P1;PMS_P2;Temp;Humidity;BMP_temperature;BMP_pressure;BME280_temperature;BME280_humidity;BME280_pressure;Samples;Min_cycle;Max_cycle;Signal;HPM_P1;HPM_P2
2021/12/17 00:01:00;;;;;;;3.97;2.90;;;;;;;4.54;87.44;99616.17;1729636;80;20938;-58
2021/12/17 00:03:42;;;;;;;9.47;2.20;;;;;;;4.54;87.40;99617.50;1724433;80;20982;-57
2021/12/17 00:06:16;;;;;;;2.43;1.67;;;;;;;4.52;87.23;99610.00;1727100;80;21127;-55
2021/12/17 00:08:43;;;;;;;2.17;1.33;;;;;;;4.46;86.93;99608.83;1727376;80;21066;-56
2021/12/17 00:11:10;;;;;;;1.60;1.10;;;;;;;4.41;86.82;99612.09;1726677;80;20860;-56
2021/12/17 00:13:36;;;;;;;2.30;1.03;;;;;;;4.39;86.83;99611.70;1693379;82;21499;-56
2021/12/17 00:16:12;;;;;;;2.70;0.80;;;;;;;4.37;86.71;99615.73;1690355;82;20930;-57
2021/12/17 00:18:43;;;;;;;4.70;0.80;;;;;;;4.38;86.56;99617.94;1727773;80;21109;-58
2021/12/17 00:43:58;;;;;;;1.90;1.10;;;;;;;4.25;86.36;99631.16;1728110;80;20871;-55
2021/12/17 00:48:38;;;;;;;2.77;1.30;;;;;;;4.32;86.45;99616.77;1725986;80;21369;-56
2021/12/17 00:53:56;;;;;;;3.20;1.70;;;;;;;4.33;86.48;99625.19;1727546;80;21670;-56
2021/12/17 00:56:22;;;;;;;2.50;1.70;;;;;;;4.32;86.44;99626.97;1726330;80;21578;-58
2021/12/17 00:58:49;;;;;;;3.47;1.30;;;;;;;4.30;86.39;99615.92;1686718;82;21089;-55
2021/12/17 01:01:16;;;;;;;3.13;1.00;;;;;;;4.29;86.34;99616.38;1686024;82;21108;-58
2021/12/17 01:03:42;;;;;;;2.23;1.27;;;;;;;4.28;86.44;99617.29;1731129;80;21393;-57
2021/12/17 01:06:09;;;;;;;1.83;1.17;;;;;;;4.29;86.43;99615.50;1724458;80;21536;-55
2021/12/17 01:08:35;;;;;;;1.57;1.10;;;;;;;4.29;86.35;99612.84;1720416;80;21084;-56
2021/12/17 01:11:04;;;;;;;2.00;0.70;;;;;;;4.29;86.19;99615.05;1689920;82;22236;-58
2021/12/17 01:13:37;;;;;;;1.00;0.70;;;;;;;4.28;86.19;99605.30;1655847;84;21149;-57
2021/12/17 01:16:18;;;;;;;1.20;0.60;;;;;;;4.27;86.11;99607.55;1681191;82;21054;-55
2021/12/17 01:35:19;;;;;;;1.00;0.50;;;;;;;4.17;85.72;99601.56;1767146;80;21543;-57
2021/12/17 01:36:41;;;;;;;0.80;0.50;;;;;;;4.21;85.62;99594.84;1773313;78;20958;-53
2021/12/17 01:42:01;;;;;;;0.70;0.40;;;;;;;4.19;85.48;99587.76;1725293;78;21083;-57
2021/12/17 01:44:15;;;;;;;1.37;0.50;;;;;;;4.16;85.38;99578.53;1763586;80;21033;-57
2021/12/17 01:46:42;;;;;;;0.63;0.40;;;;;;;4.13;85.35;99575.93;1774253;78;20973;-57
2021/12/17 02:00:07;;;;;;;1.33;0.50;;;;;;;4.08;85.41;99567.16;1766133;80;20961;-56
2021/12/17 02:02:47;;;;;;;1.13;0.50;;;;;;;4.07;85.39;99566.77;1767068;80;20969;-56
2021/12/17 02:05:14;;;;;;;2.60;0.40;;;;;;;4.06;85.46;99569.47;1703364;82;21033;-55
2021/12/17 02:07:43;;;;;;;0.73;0.50;;;;;;;4.03;85.47;99575.73;1715014;83;22059;-55
2021/12/17 02:11:19;;;;;;;0.50;0.40;;;;;;;4.03;85.52;99570.86;1703791;82;20926;-54
2021/12/17 02:12:58;;;;;;;0.43;0.30;;;;;;;4.03;85.57;99570.41;1696869;82;21014;-57
2021/12/17 02:31:43;;;;;;;0.77;0.30;;;;;;;4.03;85.69;99561.54;1717305;81;20894;-57
2021/12/17 02:36:50;;;;;;;2.13;0.50;;;;;;;4.05;85.82;99561.05;1715114;81;20895;-58
2021/12/17 02:40:16;;;;;;;2.30;0.40;;;;;;;4.07;85.91;99555.23;1714489;81;21561;-55
2021/12/17 02:47:23;;;;;;;0.90;0.40;;;;;;;4.10;85.85;99558.68;1714311;82;22342;-58
2021/12/17 02:49:49;;;;;;;1.33;0.53;;;;;;;4.10;85.85;99552.02;1714251;83;21374;-58
2021/12/17 02:52:16;;;;;;;1.97;0.57;;;;;;;4.07;85.79;99553.91;1712003;83;21336;-58
2021/12/17 02:54:44;;;;;;;1.00;0.50;;;;;;;4.03;85.78;99553.55;1713486;83;20955;-58
2021/12/17 02:57:11;;;;;;;1.33;0.50;;;;;;;4.02;85.82;99555.79;1715157;81;21412;-58
2021/12/17 02:59:38;;;;;;;2.43;0.80;;;;;;;4.00;85.93;99546.95;1711492;81;21439;-57
2021/12/17 03:02:11;;;;;;;2.33;0.53;;;;;;;3.99;85.93;99550.11;1716307;81;21437;-57
2021/12/17 03:04:35;;;;;;;1.00;0.40;;;;;;;4.00;86.02;99549.62;1714294;83;20923;-57
2021/12/17 03:07:02;;;;;;;1.27;0.40;;;;;;;4.01;86.02;99542.93;1715957;81;21536;-54
2021/12/17 03:09:49;;;;;;;0.60;0.40;;;;;;;4.04;86.08;99541.98;1714868;83;20954;-55
2021/12/17 03:11:57;;;;;;;2.17;0.40;;;;;;;4.07;85.99;99540.59;1710810;83;22138;-60
2021/12/17 03:14:25;;;;;;;0.77;0.40;;;;;;;;;;1715282;81;20903;-56
2021/12/17 03:17:00;;;;;;;2.60;0.40;;;;;;;4.04;85.74;99544.66;1712240;83;21392;-58
2021/12/17 03:23:25;;;;;;;0.87;0.40;;;;;;;4.00;85.82;99541.63;1712812;81;21499;-57
2021/12/17 03:24:37;;;;;;;3.17;0.43;;;;;;;3.89;85.87;99548.58;1681650;83;21127;-56
2021/12/17 03:27:04;;;;;;;1.33;0.63;;;;;;;3.87;85.95;99545.07;1690545;83;20987;-58
2021/12/17 03:29:31;;;;;;;0.97;0.40;;;;;;;3.86;86.13;99547.77;1730848;81;21285;-57
2021/12/17 03:32:00;;;;;;;0.87;0.40;;;;;;;3.88;86.15;99537.95;1728637;81;20932;-55
2021/12/17 03:34:26;;;;;;;1.13;0.40;;;;;;;3.88;86.16;99544.16;1728814;81;20967;-58
2021/12/17 03:36:56;;;;;;;1.23;0.30;;;;;;;3.90;86.26;99543.67;1725570;81;21083;-56
2021/12/17 03:39:24;;;;;;;0.80;0.30;;;;;;;3.92;86.30;99539.61;1729428;81;20913;-58
2021/12/17 03:41:52;;;;;;;2.00;0.40;;;;;;;3.92;86.27;99536.50;1730065;81;21342;-58
2021/12/17 03:44:20;;;;;;;2.90;0.40;;;;;;;3.92;86.17;99534.29;1726948;81;21053;-57
2021/12/17 03:46:50;;;;;;;0.97;0.30;;;;;;;3.89;86.17;99534.39;1710726;81;21920;-58
2021/12/17 03:49:17;;;;;;;1.53;0.40;;;;;;;3.91;86.19;99537.89;1728867;81;20912;-55
2021/12/17 03:52:04;;;;;;;0.67;0.30;;;;;;;3.90;86.21;99541.02;1729564;81;21015;-55
2021/12/17 03:54:23;;;;;;;2.13;0.40;;;;;;;3.91;86.20;99536.56;1726628;81;21028;-58
2021/12/17 03:56:52;;;;;;;1.10;0.40;;;;;;;3.91;86.24;99532.56;1727489;81;21365;-56
2021/12/17 03:59:19;;;;;;;2.10;0.40;;;;;;;3.93;86.27;99528.93;1728183;81;21547;-57
2021/12/17 04:01:46;;;;;;;1.73;0.50;;;;;;;3.94;86.12;99524.48;1723494;81;22357;-56
2021/12/17 04:04:12;;;;;;;1.10;0.40;;;;;;;3.93;86.09;99521.39;1727180;81;21046;-56
2021/12/17 04:06:40;;;;;;;1.57;0.40;;;;;;;3.91;86.05;99519.25;1729470;81;21824;-56
2021/12/17 04:09:29;;;;;;;1.10;0.40;;;;;;;3.88;85.94;99516.20;1724389;81;21572;-56
2021/12/17 04:11:56;;;;;;;1.40;0.30;;;;;;;3.86;85.99;99523.80;1725315;81;21128;-58
2021/12/17 04:14:40;;;;;;;2.30;0.30;;;;;;;3.83;85.95;99527.41;1727252;81;21799;-55
2021/12/17 04:17:02;;;;;;;3.03;0.30;;;;;;;3.83;86.01;99523.89;1725897;81;21733;-57
2021/12/17 04:19:26;;;;;;;0.90;0.30;;;;;;;3.81;85.98;99526.59;1720747;81;21051;-56
2021/12/17 04:21:53;;;;;;;1.83;0.40;;;;;;;3.81;85.95;99530.59;1731778;81;21069;-58
2021/12/17 04:24:20;;;;;;;1.57;0.33;;;;;;;3.84;86.02;99522.95;1747609;81;21095;-57
2021/12/17 04:26:46;;;;;;;0.90;0.43;;;;;;;3.84;86.00;99521.63;1751674;80;21390;-58
2021/12/17 04:29:16;;;;;;;4.30;0.60;;;;;;;3.85;85.85;99518.05;1746406;80;21065;-56
2021/12/17 04:31:43;;;;;;;5.57;1.23;;;;;;;3.82;85.80;99510.16;1752704;80;20983;-57
2021/12/17 04:34:12;;;;;;;1.90;0.50;;;;;;;3.80;85.88;99512.86;1752129;81;20851;-57
2021/12/17 04:36:38;;;;;;;1.27;0.33;;;;;;;3.79;85.82;99514.64;1743887;81;21128;-56
2021/12/17 04:39:07;;;;;;;0.80;0.30;;;;;;;3.77;85.70;99508.47;1748952;81;21141;-58
2021/12/17 04:41:49;;;;;;;1.13;0.30;;;;;;;3.76;85.76;99516.48;1751978;80;20865;-56
2021/12/17 04:44:18;;;;;;;0.83;0.30;;;;;;;3.76;85.85;99512.50;1746866;79;21083;-57
2021/12/17 04:46:54;;;;;;;2.40;0.40;;;;;;;3.80;85.97;99513.73;1748405;81;21073;-57
2021/12/17 04:57:35;;;;;;;2.70;0.40;;;;;;;3.86;85.46;99511.36;1743925;79;28221;-58
2021/12/17 05:00:04;;;;;;;2.13;0.30;;;;;;;3.82;85.40;99508.83;1750879;81;20938;-57
2021/12/17 05:02:33;;;;;;;1.93;0.37;;;;;;;3.81;85.37;99519.94;1753967;81;20968;-57
2021/12/17 05:05:07;;;;;;;1.10;0.30;;;;;;;3.80;85.42;99508.41;1751508;80;21093;-57
2021/12/17 05:07:34;;;;;;;1.33;0.50;;;;;;;3.80;85.34;99509.74;1748971;81;20943;-58
2021/12/17 05:18:17;;;;;;;1.73;0.40;;;;;;;3.82;85.22;99506.17;1748903;81;21728;-58
2021/12/17 05:20:52;;;;;;;1.47;0.47;;;;;;;3.82;85.12;99510.16;1746452;81;20976;-58
2021/12/17 05:23:23;;;;;;;2.40;0.40;;;;;;;3.76;84.96;99505.39;1755915;81;20942;-57
2021/12/17 05:25:49;;;;;;;1.67;0.40;;;;;;;3.72;84.98;99501.07;1754281;81;20941;-56
2021/12/17 05:28:16;;;;;;;1.60;0.30;;;;;;;3.70;85.02;99496.23;1760909;80;20867;-57
2021/12/17 05:30:46;;;;;;;1.90;0.40;;;;;;;3.73;85.10;99497.95;1760760;80;21103;-57
2021/12/17 05:33:10;;;;;;;2.63;0.40;;;;;;;3.76;85.11;99497.41;1730587;81;20958;-56
2021/12/17 05:35:37;;;;;;;1.73;0.40;;;;;;;3.79;85.06;99498.67;1763643;81;21363;-58
2021/12/17 05:38:04;;;;;;;6.23;0.50;;;;;;;3.81;84.96;99505.29;1734459;81;21017;-58
2021/12/17 05:40:30;;;;;;;2.77;0.50;;;;;;;3.80;84.85;99500.88;1762284;79;20927;-58
2021/12/17 05:43:00;;;;;;;2.50;0.53;;;;;;;3.77;84.78;99496.95;1765033;80;21837;-57
2021/12/17 05:45:35;;;;;;;3.67;0.50;;;;;;;3.76;84.73;99492.53;1759925;81;20972;-56
2021/12/17 05:48:06;;;;;;;1.37;0.40;;;;;;;3.75;84.70;99495.65;1762419;81;21218;-56
2021/12/17 05:50:35;;;;;;;3.23;0.50;;;;;;;3.74;84.66;99489.91;1760074;81;20941;-56
2021/12/17 05:53:03;;;;;;;3.00;0.40;;;;;;;3.76;84.69;99497.41;1756968;81;21301;-57
2021/12/17 05:55:30;;;;;;;2.33;0.40;;;;;;;3.75;84.45;99495.65;1732770;80;21101;-56
2021/12/17 05:57:56;;;;;;;3.83;0.50;;;;;;;3.74;84.51;99491.23;1762579;81;20923;-57
2021/12/17 06:00:23;;;;;;;4.37;0.40;;;;;;;3.75;84.55;99490.33;1691863;83;20912;-57
2021/12/17 06:02:49;;;;;;;3.20;0.40;;;;;;;3.75;84.50;99491.66;1701324;83;20982;-58
2021/12/17 06:05:18;;;;;;;1.50;0.43;;;;;;;3.76;84.46;99486.75;1701102;83;21465;-56
2021/12/17 06:07:44;;;;;;;1.50;0.40;;;;;;;3.74;84.40;99487.73;1702469;83;21082;-57
2021/12/17 06:10:11;;;;;;;1.13;0.43;;;;;;;3.73;84.43;99489.52;1696910;83;21496;-56
2021/12/17 06:12:41;;;;;;;5.17;0.50;;;;;;;3.76;84.40;99500.06;1707033;83;21061;-57
2021/12/17 06:15:11;;;;;;;1.17;0.40;;;;;;;3.76;84.42;99501.39;1706384;83;21075;-58
2021/12/17 06:17:37;;;;;;;2.13;0.63;;;;;;;3.77;84.39;99500.48;1682170;83;21476;-58
2021/12/17 06:20:06;;;;;;;2.77;0.50;;;;;;;3.78;84.32;99494.70;1705702;83;21037;-58
2021/12/17 06:22:33;;;;;;;2.33;0.60;;;;;;;3.80;84.23;99503.53;1724829;82;20911;-57
2021/12/17 06:25:05;;;;;;;2.40;0.50;;;;;;;3.77;84.17;99497.83;1724560;82;20961;-57
2021/12/17 06:27:32;;;;;;;3.70;0.50;;;;;;;3.74;84.15;99506.36;1695765;82;21108;-58
2021/12/17 06:30:01;;;;;;;1.10;0.47;;;;;;;3.72;84.22;99501.07;1697003;82;21030;-55
2021/12/17 06:32:28;;;;;;;1.77;0.80;;;;;;;3.71;84.16;99501.10;1693062;84;21216;-56
2021/12/17 06:34:55;;;;;;;3.40;0.50;;;;;;;3.71;84.16;99503.77;1691672;84;21520;-58
2021/12/17 06:37:21;;;;;;;2.53;0.50;;;;;;;3.70;84.21;99504.67;1724699;81;21008;-57
2021/12/17 06:39:48;;;;;;;2.00;0.40;;;;;;;3.71;84.30;99498.44;1714235;82;21055;-57
2021/12/17 06:42:15;;;;;;;1.63;0.40;;;;;;;3.75;84.28;99493.44;1693635;83;21041;-54
2021/12/17 06:44:43;;;;;;;3.33;0.50;;;;;;;3.78;84.16;99498.70;1709365;83;21136;-57
2021/12/17 06:47:15;;;;;;;2.37;0.50;;;;;;;3.79;84.06;99490.68;1712233;83;21444;-56
2021/12/17 07:00:54;;;;;;;1.85;0.60;;;;;;;3.70;83.77;99498.89;1671457;83;21121;-59
2021/12/17 07:06:22;;;;;;;3.57;0.50;;;;;;;3.69;83.90;99505.58;1720326;82;21115;-55
2021/12/17 07:17:13;;;;;;;2.85;0.40;;;;;;;3.73;83.71;99508.14;1705537;82;21024;-56
2021/12/17 07:33:17;;;;;;;1.23;0.20;;;;;;;3.66;83.51;99509.18;1689210;83;22472;-58
2021/12/17 07:35:47;;;;;;;2.00;0.30;;;;;;;3.63;83.47;99507.06;1722635;82;21520;-56
2021/12/17 07:40:59;;;;;;;0.80;0.20;;;;;;;3.56;83.50;99501.48;1690050;84;21398;-57
2021/12/17 07:46:20;;;;;;;0.30;0.13;;;;;;;3.55;83.53;99502.39;1790450;77;23291;-59
2021/12/17 07:48:46;;;;;;;0.67;0.20;;;;;;;3.49;83.62;99498.06;1774409;78;20957;-56
2021/12/17 07:51:15;;;;;;;0.20;0.20;;;;;;;3.49;83.72;99498.06;1769909;78;21134;-58
2021/12/17 07:53:43;;;;;;;0.77;0.30;;;;;;;3.51;83.79;99498.91;1770786;78;20972;-58
2021/12/17 07:56:18;;;;;;;0.60;0.33;;;;;;;3.54;83.85;99499.30;1771779;78;20930;-56
2021/12/17 07:58:44;;;;;;;1.33;0.40;;;;;;;3.56;83.86;99500.15;1739386;79;21391;-59
2021/12/17 08:01:11;;;;;;;1.30;0.40;;;;;;;3.56;83.89;99503.69;1767900;79;20906;-58
2021/12/17 08:03:38;;;;;;;1.23;0.50;;;;;;;3.54;83.87;99506.83;1769961;79;21189;-56
2021/12/17 08:06:10;;;;;;;1.10;0.50;;;;;;;3.52;84.03;99501.99;1765203;78;20910;-59
2021/12/17 08:08:40;;;;;;;1.03;0.93;;;;;;;3.51;84.10;99508.22;1766689;78;21263;-58
2021/12/17 08:11:22;;;;;;;0.67;0.40;;;;;;;3.52;84.07;99503.78;1764836;79;20966;-56
2021/12/17 08:13:50;;;;;;;1.00;0.40;;;;;;;3.51;84.13;99503.36;1772696;79;20933;-59
2021/12/17 08:32:05;;;;;;;2.27;0.33;;;;;;;3.57;84.43;99501.91;1715110;81;21071;-56
2021/12/17 08:37:32;;;;;;;0.83;0.40;;;;;;;3.61;84.54;99495.12;1792281;78;22658;-59
2021/12/17 08:39:59;;;;;;;0.33;0.27;;;;;;;3.58;84.54;99506.28;1761868;79;21070;-55
2021/12/17 08:42:27;;;;;;;1.03;0.47;;;;;;;3.59;84.52;99494.28;1764070;79;22046;-56
2021/12/17 08:44:55;;;;;;;1.10;0.40;;;;;;;3.61;84.49;99497.78;1769463;79;21013;-56
2021/12/17 08:47:26;;;;;;;2.47;0.30;;;;;;;3.64;84.53;99499.50;1760008;79;21117;-58
2021/12/17 08:49:53;;;;;;;1.33;0.40;;;;;;;3.68;84.44;99494.05;1762524;79;21074;-56
2021/12/17 08:52:21;;;;;;;0.53;0.30;;;;;;;3.67;84.32;99490.97;1768205;79;20981;-56
2021/12/17 08:54:48;;;;;;;2.00;0.40;;;;;;;3.68;84.39;99491.39;1767970;79;21121;-58
2021/12/17 08:57:17;;;;;;;2.17;0.50;;;;;;;3.67;84.33;99486.98;1752253;80;21048;-57
2021/12/17 08:59:43;;;;;;;2.23;0.50;;;;;;;3.67;84.29;99486.10;1741564;80;21072;-58
2021/12/17 09:02:12;;;;;;;1.03;0.40;;;;;;;3.66;84.28;99483.89;1739757;80;21080;-59
2021/12/17 09:04:42;;;;;;;0.77;0.40;;;;;;;3.67;84.36;99481.66;1746693;80;21461;-56
2021/12/17 09:07:11;;;;;;;2.73;0.40;;;;;;;3.69;84.44;99474.97;1744816;80;21539;-56
2021/12/17 09:09:40;;;;;;;0.83;0.40;;;;;;;3.71;84.49;99477.14;1751830;80;20977;-57
2021/12/17 09:12:10;;;;;;;0.87;0.40;;;;;;;3.74;84.46;99468.60;1735528;80;21078;-58
2021/12/17 09:14:38;;;;;;;3.40;0.50;;;;;;;3.78;84.35;99471.62;1741633;80;21049;-57
2021/12/17 09:17:21;;;;;;;1.73;0.40;;;;;;;3.83;84.41;99468.83;1737255;80;21104;-57
2021/12/17 09:19:46;;;;;;;0.90;0.43;;;;;;;3.88;84.17;99470.94;1744435;80;21222;-56
2021/12/17 09:22:14;;;;;;;1.40;0.60;;;;;;;3.90;84.06;99472.23;1740808;80;22351;-55
2021/12/17 09:24:43;;;;;;;1.97;0.50;;;;;;;3.88;83.80;99461.62;1746403;80;20977;-59
2021/12/17 09:27:19;;;;;;;3.77;0.90;;;;;;;3.86;83.73;99466.09;1742587;80;21504;-57
2021/12/17 09:30:06;;;;;;;1.40;0.60;;;;;;;3.81;83.67;99465.36;1744736;80;22194;-57
2021/12/17 09:32:34;;;;;;;3.03;0.90;;;;;;;3.78;83.68;99465.42;1740930;80;21094;-57
2021/12/17 09:35:01;;;;;;;0.87;0.50;;;;;;;3.74;83.60;99463.28;1746045;80;21062;-59
2021/12/17 09:37:29;;;;;;;1.10;0.40;;;;;;;3.73;83.68;99462.02;1740825;80;21133;-56
2021/12/17 09:39:55;;;;;;;1.80;0.50;;;;;;;3.72;83.59;99457.14;1734130;81;21108;-57
2021/12/17 09:42:22;;;;;;;1.30;0.50;;;;;;;3.74;83.57;99456.62;1725020;80;21069;-59
2021/12/17 09:44:48;;;;;;;2.23;0.40;;;;;;;3.76;83.52;99456.14;1729999;81;21052;-56
2021/12/17 09:47:15;;;;;;;0.83;0.40;;;;;;;3.78;83.49;99456.98;1726091;80;21070;-56
2021/12/17 09:49:41;;;;;;;1.50;0.37;;;;;;;3.80;83.43;99451.63;1732924;82;21050;-56
2021/12/17 09:52:08;;;;;;;2.87;0.60;;;;;;;3.81;83.38;99452.05;1730963;81;20930;-56
2021/12/17 09:54:36;;;;;;;3.70;0.60;;;;;;;3.80;83.26;99451.63;1696063;83;21631;-59
2021/12/17 09:57:04;;;;;;;2.80;0.50;;;;;;;3.78;83.26;99451.66;1728495;80;21782;-59
2021/12/17 09:59:32;;;;;;;2.73;0.50;;;;;;;3.78;83.14;99445.00;1733799;80;20934;-59
2021/12/17 10:01:59;;;;;;;3.07;0.47;;;;;;;3.76;83.05;99445.48;1728909;81;22422;-58
2021/12/17 10:04:27;;;;;;;3.10;0.73;;;;;;;3.78;83.04;99450.78;1731452;80;21082;-58
2021/12/17 10:07:21;;;;;;;3.23;0.30;;;;;;;3.80;82.77;99438.31;1731455;80;21814;-59
2021/12/17 10:10:48;;;;;;;1.80;0.50;;;;;;;3.86;82.79;99438.14;1791811;78;22929;-53
2021/12/17 10:13:21;;;;;;;1.30;0.40;;;;;;;3.82;82.61;99436.49;1774183;79;20961;-56
2021/12/17 10:15:51;;;;;;;1.90;0.50;;;;;;;3.84;82.43;99441.75;1773910;79;21202;-56
2021/12/17 10:18:18;;;;;;;2.80;0.40;;;;;;;3.83;82.21;99442.69;1775414;79;21021;-56
2021/12/17 10:20:55;;;;;;;2.20;0.30;;;;;;;3.82;82.18;99443.60;1744925;79;20933;-58
2021/12/17 10:23:23;;;;;;;1.33;0.30;;;;;;;3.83;81.88;99438.21;1770943;79;20977;-58
2021/12/17 10:25:49;;;;;;;0.90;0.30;;;;;;;3.84;81.73;99436.42;1768753;79;20914;-58
2021/12/17 10:28:15;;;;;;;1.17;0.40;;;;;;;3.86;81.55;99439.92;1773104;79;22351;-59
2021/12/17 10:30:45;;;;;;;0.73;0.30;;;;;;;3.88;81.62;99436.32;1768797;79;20971;-60
2021/12/17 10:33:18;;;;;;;2.20;0.30;;;;;;;3.91;81.39;99432.26;1768089;79;21062;-58
2021/12/17 10:35:47;;;;;;;0.97;0.30;;;;;;;3.91;80.78;99428.27;1770417;79;22425;-57
2021/12/17 10:38:16;;;;;;;0.90;0.30;;;;;;;3.89;80.64;99422.55;1711066;81;21085;-58
2021/12/17 10:40:50;;;;;;;1.50;0.30;;;;;;;3.89;80.40;99425.22;1707283;82;21315;-57
2021/12/17 10:45:11;;;;;;;1.23;0.27;;;;;;;3.89;80.20;99425.22;1773544;78;22441;-56
2021/12/17 10:47:35;;;;;;;1.35;0.30;;;;;;;3.85;80.24;99425.73;1740978;80;21472;-57
2021/12/17 10:50:03;;;;;;;1.57;0.30;;;;;;;3.88;80.27;99424.80;1713744;81;21078;-55
2021/12/17 10:52:40;;;;;;;1.33;0.40;;;;;;;3.91;80.28;99418.06;1708166;81;21467;-55
2021/12/17 10:55:14;;;;;;;2.67;0.40;;;;;;;3.94;80.17;99418.84;1702842;81;21108;-57
2021/12/17 10:57:42;;;;;;;0.60;0.37;;;;;;;3.97;80.03;99420.10;1699259;81;20943;-58
2021/12/17 11:00:10;;;;;;;1.37;0.40;;;;;;;3.98;79.96;99414.32;1673600;83;20954;-57
2021/12/17 11:02:37;;;;;;;0.93;0.40;;;;;;;3.97;79.97;99419.23;1678362;83;21084;-57
2021/12/17 11:05:11;;;;;;;2.70;0.33;;;;;;;3.95;79.71;99416.60;1676811;83;21532;-57
2021/12/17 11:07:38;;;;;;;0.85;0.30;;;;;;;3.92;79.73;99422.45;1692414;82;21032;-57
2021/12/17 11:10:06;;;;;;;1.23;0.40;;;;;;;3.89;79.63;99418.11;1671142;83;21071;-54
2021/12/17 11:12:35;;;;;;;2.20;0.30;;;;;;;3.89;79.85;99423.43;1651308;84;21111;-55
2021/12/17 11:15:22;;;;;;;0.93;0.30;;;;;;;3.92;79.54;99419.33;1680521;82;21849;-56
2021/12/17 11:17:58;;;;;;;0.53;0.30;;;;;;;3.95;79.54;99421.92;1677352;82;21077;-55
2021/12/17 11:20:37;;;;;;;0.70;0.30;;;;;;;3.98;79.31;99416.98;1679477;82;21169;-58
2021/12/17 11:23:09;;;;;;;0.73;0.40;;;;;;;3.99;79.06;99416.07;1680376;82;21065;-55
2021/12/17 11:25:37;;;;;;;0.80;0.30;;;;;;;3.99;79.10;99406.30;1684341;82;22015;-54
2021/12/17 11:28:05;;;;;;;0.97;0.40;;;;;;;4.00;78.88;99409.34;1683457;82;22203;-57
2021/12/17 11:30:35;;;;;;;2.70;0.90;;;;;;;3.99;78.94;99408.09;1677231;83;21080;-54
2021/12/17 11:33:04;;;;;;;1.60;0.40;;;;;;;3.96;78.90;99409.48;1687313;82;21320;-55
2021/12/17 11:35:34;;;;;;;2.20;0.40;;;;;;;3.95;78.86;99405.95;1685697;82;20938;-54
2021/12/17 11:38:13;;;;;;;2.07;0.30;;;;;;;3.96;78.86;99408.16;1687163;82;21508;-57
2021/12/17 11:40:52;;;;;;;2.20;0.20;;;;;;;3.97;78.84;99409.45;1667681;82;21149;-55
2021/12/17 11:43:49;;;;;;;1.53;0.40;;;;;;;3.98;78.71;99403.67;1680755;82;21557;-57
2021/12/17 11:46:13;;;;;;;0.67;0.37;;;;;;;4.01;78.80;99410.22;1689130;82;21542;-58
2021/12/17 11:48:51;;;;;;;1.93;0.50;;;;;;;4.06;78.63;99416.31;1677488;83;21120;-56
2021/12/17 11:51:23;;;;;;;0.70;0.30;;;;;;;4.07;77.98;99410.95;1640062;83;20911;-54
2021/12/17 11:54:03;;;;;;;0.83;0.50;;;;;;;4.04;78.14;99403.49;1674461;83;21449;-57
2021/12/17 11:56:44;;;;;;;1.40;0.30;;;;;;;4.02;78.06;99410.19;1679033;83;21057;-55
2021/12/17 11:59:33;;;;;;;1.23;0.40;;;;;;;3.99;77.97;99412.95;1673976;83;21087;-57
2021/12/17 12:02:23;;;;;;;1.67;0.40;;;;;;;3.96;77.92;99412.15;1674814;83;21054;-54
2021/12/17 12:04:57;;;;;;;1.73;0.40;;;;;;;3.96;78.06;99409.03;1677445;83;21395;-57
2021/12/17 12:07:29;;;;;;;1.55;0.40;;;;;;;4.00;77.95;99419.13;1674041;83;22250;-57
2021/12/17 12:10:19;;;;;;;1.13;0.40;;;;;;;4.01;77.95;99415.09;1672074;83;21120;-58
2021/12/17 12:12:52;;;;;;;0.70;0.40;;;;;;;4.04;77.95;99417.69;1673578;83;21088;-55
2021/12/17 12:15:30;;;;;;;1.40;0.40;;;;;;;4.06;77.69;99415.86;1673076;83;21180;-54
2021/12/17 12:18:04;;;;;;;0.77;0.40;;;;;;;4.07;77.53;99412.74;1643708;83;22146;-58
2021/12/17 12:20:51;;;;;;;0.60;0.30;;;;;;;4.05;77.36;99414.56;1679723;83;21866;-56
2021/12/17 12:23:37;;;;;;;1.87;0.40;;;;;;;3.99;77.18;99414.28;1659547;84;21010;-55
2021/12/17 12:26:23;;;;;;;0.80;0.30;;;;;;;3.96;76.92;99408.16;1666965;83;21069;-56
2021/12/17 12:29:03;;;;;;;0.47;0.20;;;;;;;3.94;76.69;99415.30;1672443;83;22566;-55
2021/12/17 12:31:38;;;;;;;0.50;0.30;;;;;;;3.92;76.58;99418.00;1673098;83;21021;-56
2021/12/17 12:34:14;;;;;;;2.67;0.33;;;;;;;3.90;76.47;99417.65;1677934;83;21131;-56
2021/12/17 12:36:53;;;;;;;0.73;0.40;;;;;;;3.87;76.57;99419.92;1678049;83;21511;-55
2021/12/17 12:39:37;;;;;;;1.30;0.50;;;;;;;3.85;76.54;99424.86;1676883;83;20940;-55
2021/12/17 12:42:09;;;;;;;1.63;0.40;;;;;;;3.81;76.43;99416.11;1688343;82;20958;-55
2021/12/17 12:44:47;;;;;;;1.70;0.50;;;;;;;3.78;76.51;99425.03;1677095;83;21363;-56
2021/12/17 12:47:27;;;;;;;2.23;0.40;;;;;;;3.79;76.72;99430.78;1675252;83;21638;-58
2021/12/17 12:50:15;;;;;;;1.03;0.40;;;;;;;3.84;76.76;99423.98;1669673;83;21580;-55
2021/12/17 12:52:58;;;;;;;1.00;0.30;;;;;;;3.86;76.74;99427.95;1679035;83;21117;-54
2021/12/17 12:55:43;;;;;;;1.00;0.43;;;;;;;3.89;76.50;99430.54;1676007;83;21133;-55
2021/12/17 12:58:15;;;;;;;0.87;0.30;;;;;;;3.89;76.35;99432.75;1676399;83;21049;-55
2021/12/17 13:00:49;;;;;;;0.67;0.40;;;;;;;3.85;76.30;99432.39;1677342;83;21384;-57
2021/12/17 13:03:18;;;;;;;1.00;0.40;;;;;;;3.84;76.25;99433.30;1677100;83;20986;-53
2021/12/17 13:05:47;;;;;;;1.00;0.30;;;;;;;3.82;75.88;99433.83;1680385;83;20907;-56
2021/12/17 13:08:17;;;;;;;0.50;0.30;;;;;;;3.79;76.02;99445.42;1672101;83;21573;-56
2021/12/17 13:10:55;;;;;;;0.93;0.40;;;;;;;3.78;75.96;99450.33;1682570;83;20947;-57
2021/12/17 13:16:14;;;;;;;0.70;0.50;;;;;;;3.78;75.83;99448.99;1672617;83;21554;-57
2021/12/17 13:21:42;;;;;;;1.30;0.87;;;;;;;3.79;75.70;99457.86;1676185;83;21132;-57
2021/12/17 13:24:15;;;;;;;1.70;0.40;;;;;;;3.76;75.64;99447.27;1672097;83;21361;-55
2021/12/17 13:26:54;;;;;;;1.37;0.40;;;;;;;3.71;75.67;99452.73;1676882;83;21188;-55
2021/12/17 13:29:31;;;;;;;2.20;0.70;;;;;;;3.68;75.69;99458.58;1671384;83;21117;-55
2021/12/17 13:32:14;;;;;;;1.00;0.30;;;;;;;3.67;75.75;99448.84;1677612;83;21082;-57
2021/12/17 13:34:53;;;;;;;3.53;0.40;;;;;;;3.69;75.89;99457.21;1680885;83;20974;-53
2021/12/17 13:37:24;;;;;;;1.43;0.40;;;;;;;3.73;75.82;99462.89;1677469;83;20955;-55
2021/12/17 13:40:00;;;;;;;0.90;0.40;;;;;;;3.76;75.84;99461.46;1681214;83;22207;-54
2021/12/17 13:42:29;;;;;;;1.10;0.40;;;;;;;3.79;75.84;99464.52;1679787;83;20935;-57
2021/12/17 13:44:57;;;;;;;2.60;0.50;;;;;;;3.77;75.83;99455.69;1673668;83;21421;-57
2021/12/17 13:47:33;;;;;;;1.20;0.50;;;;;;;3.76;75.89;99453.48;1665711;83;20947;-59
2021/12/17 13:50:16;;;;;;;1.07;0.40;;;;;;;3.73;75.94;99458.90;1669498;83;20935;-56
2021/12/17 13:52:58;;;;;;;1.10;0.40;;;;;;;3.70;75.97;99456.30;1668405;83;21958;-57
2021/12/17 13:55:37;;;;;;;2.30;0.40;;;;;;;3.69;76.06;99461.66;1666005;83;20982;-59
2021/12/17 13:58:12;;;;;;;0.73;0.30;;;;;;;3.66;76.11;99461.27;1665811;83;20903;-56
2021/12/17 14:00:42;;;;;;;0.73;0.37;;;;;;;3.65;76.18;99466.20;1669406;83;20987;-55
2021/12/17 14:03:11;;;;;;;1.10;0.50;;;;;;;3.65;76.20;99466.20;1674728;83;20943;-55
2021/12/17 14:05:43;;;;;;;1.00;0.50;;;;;;;3.65;76.21;99459.55;1672080;83;21433;-55
2021/12/17 14:08:13;;;;;;;1.97;0.50;;;;;;;3.65;76.28;99461.34;1664297;84;20914;-55
2021/12/17 14:10:39;;;;;;;1.97;0.57;;;;;;;3.64;76.30;99456.92;1674707;83;20983;-54
2021/12/17 14:13:19;;;;;;;1.37;0.50;;;;;;;3.62;76.22;99458.28;1677546;83;21006;-55
2021/12/17 14:15:46;;;;;;;3.07;0.83;;;;;;;3.59;76.29;99457.47;1677095;83;20919;-54
2021/12/17 14:18:19;;;;;;;1.10;0.57;;;;;;;3.57;76.34;99455.33;1675508;83;21558;-56
2021/12/17 14:20:49;;;;;;;0.90;0.40;;;;;;;3.54;76.33;99465.58;1672252;83;20978;-56
2021/12/17 14:23:20;;;;;;;2.37;0.40;;;;;;;3.52;76.26;99462.08;1669502;83;21122;-54
2021/12/17 14:25:57;;;;;;;2.93;0.50;;;;;;;3.52;76.26;99467.85;1670173;83;21085;-57
2021/12/17 14:28:30;;;;;;;1.80;0.40;;;;;;;3.54;76.22;99469.58;1672206;83;21066;-54
2021/12/17 14:31:09;;;;;;;0.70;0.40;;;;;;;3.57;76.06;99465.52;1671515;83;21790;-55
2021/12/17 14:33:42;;;;;;;3.23;0.50;;;;;;;3.60;75.78;99477.85;1670428;83;21074;-54
2021/12/17 14:36:11;;;;;;;1.00;0.50;;;;;;;3.60;75.58;99472.53;1711513;81;20919;-56
2021/12/17 14:38:47;;;;;;;1.73;0.93;;;;;;;3.59;75.29;99479.64;1712078;81;21559;-55
2021/12/17 14:41:24;;;;;;;1.90;0.80;;;;;;;3.54;75.28;99480.22;1712533;81;20978;-55
2021/12/17 14:43:55;;;;;;;1.17;0.60;;;;;;;3.49;75.21;99480.77;1712815;81;21722;-54
2021/12/17 14:46:23;;;;;;;1.23;0.50;;;;;;;3.44;75.29;99482.67;1722116;80;21068;-59
2021/12/17 15:04:48;;;;;;;1.20;0.63;;;;;;;3.18;76.74;99489.93;1721840;80;21109;-58